createdAt,value
2023-02-24T00:01:19.472Z,100074.09
2023-02-24T00:06:37.080Z,100073.25
2023-02-24T00:11:44.385Z,100063.66
2023-02-24T00:16:48.756Z,100039.75
2023-02-24T00:21:55.151Z,100048.53
2023-02-24T00:27:01.568Z,100049.19
2023-02-24T00:32:08.462Z,100044.03
2023-02-24T00:37:12.718Z,100045.78
2023-02-24T00:42:16.986Z,100042.25
2023-02-24T00:47:21.111Z,100057.53
2023-02-24T00:52:28.738Z,100071.25
2023-02-24T00:57:33.966Z,100065.31
2023-02-24T01:02:39.249Z,100055.22
2023-02-24T01:07:42.993Z,100081.88
2023-02-24T01:12:54.646Z,100082.97
2023-02-24T01:17:58.504Z,100087.31
2023-02-24T01:23:04.073Z,100084.53
2023-02-24T01:28:12.062Z,100084.63
2023-02-24T01:33:16.227Z,100105.28
2023-02-24T01:38:23.814Z,100097.31
2023-02-24T01:43:28.811Z,100101.66
2023-02-24T01:48:32.709Z,100054.19
2023-02-24T01:53:37.048Z,100100.00
2023-02-24T01:58:41.747Z,100101.84
2023-02-24T02:03:45.915Z,100064.22
2023-02-24T02:08:49.877Z,100112.78
2023-02-24T02:13:54.792Z,100117.97
2023-02-24T02:19:35.774Z,100122.22
2023-02-24T02:24:52.083Z,100131.84
2023-02-24T02:30:46.001Z,100135.84
2023-02-24T02:36:03.808Z,100134.16
2023-02-24T02:41:37.116Z,100133.31
2023-02-24T02:47:14.254Z,100146.94
2023-02-24T02:52:29.521Z,100144.25
2023-02-24T02:57:35.479Z,100147.50
2023-02-24T03:02:42.771Z,100126.78
2023-02-24T03:07:52.058Z,100140.06
2023-02-24T03:13:00.727Z,100144.06
2023-02-24T03:18:13.007Z,100122.41
2023-02-24T03:23:26.976Z,100136.22
2023-02-24T03:28:40.405Z,100146.06
2023-02-24T03:34:11.362Z,100134.97
2023-02-24T03:39:16.549Z,100139.06
2023-02-24T03:44:31.509Z,100069.38
2023-02-24T03:49:39.087Z,100140.41
2023-02-24T03:55:10.052Z,100140.81
2023-02-24T04:00:26.484Z,100140.72
2023-02-24T04:05:39.120Z,100142.59
2023-02-24T04:11:25.638Z,100125.72
2023-02-24T04:16:37.312Z,100127.41
2023-02-24T04:21:44.185Z,100134.59
2023-02-24T04:26:59.591Z,100083.56
2023-02-24T04:32:11.838Z,100121.47
2023-02-24T04:37:16.455Z,100101.69
2023-02-24T04:42:23.370Z,100122.00
2023-02-24T04:47:29.895Z,100120.09
2023-02-24T04:52:34.662Z,100124.53
2023-02-24T04:57:38.915Z,100143.63
2023-02-24T05:02:42.709Z,100141.03
2023-02-24T05:07:48.439Z,100144.16
2023-02-24T05:12:54.539Z,100139.56
2023-02-24T05:18:00.918Z,100134.66
2023-02-24T05:23:04.821Z,100145.06
2023-02-24T05:28:08.775Z,100150.31
2023-02-24T05:33:14.191Z,100150.94
2023-02-24T05:38:20.793Z,100156.88
2023-02-24T05:43:27.025Z,100153.44
2023-02-24T05:48:36.255Z,100161.66
2023-02-24T05:53:43.877Z,100154.47
2023-02-24T05:58:48.044Z,100169.44
2023-02-24T06:03:54.952Z,100155.00
2023-02-24T06:09:03.837Z,100163.22
2023-02-24T06:14:09.001Z,100149.59
2023-02-24T06:19:14.980Z,100163.16
2023-02-24T06:24:20.296Z,100154.13
2023-02-24T06:29:30.526Z,100136.97
2023-02-24T06:34:34.374Z,100143.41
2023-02-24T06:39:38.353Z,100138.94
2023-02-24T06:45:00.884Z,100130.09
2023-02-24T06:50:10.638Z,100122.09
2023-02-24T06:55:27.042Z,100122.72
2023-02-24T07:00:39.601Z,100130.19
2023-02-24T07:06:12.156Z,100115.84
2023-02-24T07:11:18.772Z,100116.88
2023-02-24T07:16:29.430Z,100112.72
2023-02-24T07:21:40.285Z,100127.69
2023-02-24T07:26:46.024Z,100122.97
2023-02-24T07:31:50.786Z,100129.31
2023-02-24T07:36:56.508Z,100097.28
2023-02-24T07:42:00.392Z,100110.50
2023-02-24T07:47:08.553Z,100101.75
2023-02-24T07:52:12.240Z,100094.06
2023-02-24T07:57:16.436Z,100064.19
2023-02-24T08:02:20.697Z,100021.25
2023-02-24T08:07:25.705Z,100072.31
2023-02-24T08:12:30.710Z,100075.63
2023-02-24T08:17:35.274Z,100057.97
2023-02-24T08:22:44.814Z,100046.13
2023-02-24T08:28:12.626Z,100041.97
2023-02-24T08:33:22.675Z,100031.88
2023-02-24T08:38:40.712Z,100029.47
2023-02-24T08:43:47.325Z,100021.25
2023-02-24T08:48:56.345Z,100014.59
2023-02-24T08:54:03.656Z,100016.38
2023-02-24T08:59:08.410Z,100025.28
2023-02-24T09:04:19.766Z,100019.84
2023-02-24T09:09:23.658Z,100022.13
2023-02-24T09:14:38.335Z,100020.22
2023-02-24T09:19:52.493Z,100006.09
2023-02-24T09:25:17.633Z,99994.84
2023-02-24T09:30:36.731Z,99986.34
2023-02-24T09:35:42.507Z,99991.19
2023-02-24T09:40:50.991Z,99996.88
2023-02-24T09:46:18.003Z,99987.28
2023-02-24T09:51:23.484Z,99972.78
2023-02-24T09:56:45.365Z,99958.59
2023-02-24T10:02:03.198Z,99954.44
2023-02-24T10:07:39.992Z,99956.03
2023-02-24T10:12:43.886Z,99954.28
2023-02-24T10:17:56.393Z,99948.09
2023-02-24T10:23:10.699Z,99947.09
2023-02-24T10:28:59.635Z,99935.88
2023-02-24T10:34:09.875Z,99929.31
2023-02-24T10:39:26.406Z,99914.13
2023-02-24T10:44:37.292Z,99901.00
2023-02-24T10:49:57.634Z,99910.81
2023-02-24T10:55:27.347Z,99900.63
2023-02-24T11:00:52.640Z,99887.66
2023-02-24T11:06:05.728Z,99882.03
2023-02-24T11:11:30.635Z,99876.13
2023-02-24T11:17:08.507Z,99851.44
2023-02-24T11:22:21.492Z,99860.94
2023-02-24T11:27:27.284Z,99858.09
2023-02-24T11:32:44.355Z,99851.41
2023-02-24T11:38:14.709Z,99865.63
2023-02-24T11:43:25.020Z,99872.19
2023-02-24T11:48:36.577Z,99871.28
2023-02-24T11:53:52.360Z,99863.78
2023-02-24T11:59:29.842Z,99852.97
2023-02-24T12:04:41.623Z,99846.66
2023-02-24T12:09:56.317Z,99831.88
2023-02-24T12:15:11.574Z,99830.31
2023-02-24T12:20:35.623Z,99826.72
2023-02-24T12:26:09.847Z,99832.25
2023-02-24T12:31:46.651Z,99829.09
2023-02-24T12:37:11.863Z,99835.28
2023-02-24T12:42:46.055Z,99843.50
2023-02-24T12:48:10.309Z,99852.44
2023-02-24T12:53:23.646Z,99844.28
2023-02-24T12:58:35.225Z,99857.03
2023-02-24T13:04:03.795Z,99848.53
2023-02-24T13:09:29.521Z,99847.78
2023-02-24T13:14:39.815Z,99867.88
2023-02-24T13:19:45.693Z,99862.78
2023-02-24T13:24:55.662Z,99842.13
2023-02-24T13:30:15.300Z,99850.53
2023-02-24T13:35:22.036Z,99843.78
2023-02-24T13:40:29.979Z,99849.78
2023-02-24T13:45:42.703Z,99805.47
2023-02-24T13:51:09.077Z,99848.97
2023-02-24T13:56:42.745Z,99835.06
2023-02-24T14:02:01.628Z,99867.03
2023-02-24T14:07:11.565Z,99858.47
2023-02-24T14:12:20.879Z,99881.72
2023-02-24T14:17:27.325Z,99877.47
2023-02-24T14:22:31.373Z,99888.81
2023-02-24T14:27:35.357Z,99896.56
2023-02-24T14:32:39.385Z,99912.97
2023-02-24T14:37:43.453Z,99885.81
2023-02-24T14:42:51.240Z,99889.97
2023-02-24T14:47:57.251Z,99912.31
2023-02-24T14:53:11.284Z,99906.88
2023-02-24T14:58:23.124Z,99906.06
2023-02-24T15:03:47.521Z,99897.97
2023-02-24T15:08:59.211Z,99938.06
2023-02-24T15:14:07.270Z,99946.06
2023-02-24T15:19:34.298Z,99953.72
2023-02-24T15:24:39.098Z,99887.06
2023-02-24T15:29:45.347Z,99958.44
2023-02-24T15:34:49.650Z,99969.53
2023-02-24T15:40:08.251Z,99959.66
2023-02-24T15:45:34.943Z,99975.91
2023-02-24T15:50:40.125Z,100003.41
2023-02-24T15:55:45.420Z,100006.13
2023-02-24T16:00:54.027Z,100045.34
2023-02-24T16:05:58.014Z,99987.94
2023-02-24T16:11:02.040Z,100064.78
2023-02-24T16:16:08.984Z,100053.16
2023-02-24T16:21:14.392Z,100083.09
2023-02-24T16:26:22.202Z,100095.34
2023-02-24T16:31:27.365Z,100118.84
2023-02-24T16:36:32.272Z,100113.38
2023-02-24T16:41:36.190Z,100091.72
2023-02-24T16:46:42.121Z,100117.78
2023-02-24T16:51:46.505Z,100092.75
2023-02-24T16:56:51.297Z,100129.59
2023-02-24T17:01:56.059Z,100105.34
2023-02-24T17:07:00.205Z,100128.00
2023-02-24T17:12:04.470Z,100122.69
2023-02-24T17:17:08.467Z,100136.41
2023-02-24T17:22:12.253Z,100096.69
2023-02-24T17:27:16.156Z,100137.84
2023-02-24T17:32:20.567Z,100159.84
2023-02-24T17:37:24.385Z,100165.38
2023-02-24T17:42:28.769Z,100164.75
2023-02-24T17:47:33.483Z,100142.22
2023-02-24T17:52:37.969Z,100086.50
2023-02-24T17:57:41.874Z,100168.44
2023-02-24T18:02:46.108Z,100188.50
2023-02-24T18:07:50.355Z,100190.59
2023-02-24T18:12:54.188Z,100177.00
2023-02-24T18:17:58.224Z,100214.03
2023-02-24T18:23:02.044Z,100196.69
2023-02-24T18:28:06.774Z,100204.75
2023-02-24T18:33:11.061Z,100141.50
2023-02-24T18:38:15.227Z,100210.00
2023-02-24T18:43:19.177Z,100220.38
2023-02-24T18:48:22.939Z,100246.97
2023-02-24T18:53:30.338Z,100229.19
2023-02-24T18:58:35.362Z,100242.94
2023-02-24T19:03:39.261Z,100258.56
2023-02-24T19:08:43.549Z,100250.13
2023-02-24T19:13:48.990Z,100269.94
2023-02-24T19:18:54.528Z,100268.47
2023-02-24T19:24:09.674Z,100275.59
2023-02-24T19:29:14.075Z,100267.50
2023-02-24T19:34:18.078Z,100269.28
2023-02-24T19:39:22.021Z,100269.50
2023-02-24T19:44:25.992Z,100253.69
2023-02-24T19:49:31.925Z,100273.06
2023-02-24T19:54:36.023Z,100293.00
2023-02-24T19:59:41.912Z,100292.19
2023-02-24T20:04:46.342Z,100300.94
2023-02-24T20:09:50.115Z,100300.09
2023-02-24T20:14:53.892Z,100292.63
2023-02-24T20:19:58.576Z,100282.50
2023-02-24T20:25:02.318Z,100269.19
2023-02-24T20:30:07.211Z,100287.94
2023-02-24T20:35:11.551Z,100293.28
2023-02-24T20:40:15.691Z,100301.97
2023-02-24T20:45:19.637Z,100295.22
2023-02-24T20:50:52.633Z,100296.00
2023-02-24T20:56:02.743Z,100290.41
2023-02-24T21:01:06.797Z,100313.38
2023-02-24T21:06:13.043Z,100308.22
2023-02-24T21:11:16.785Z,100318.59
2023-02-24T21:16:22.566Z,100312.72
2023-02-24T21:21:28.294Z,100292.78
2023-02-24T21:26:32.063Z,100314.81
2023-02-24T21:31:36.163Z,100315.25
2023-02-24T21:36:40.189Z,100323.19
2023-02-24T21:41:44.789Z,100313.00
2023-02-24T21:46:48.773Z,100307.25
2023-02-24T21:51:52.673Z,100298.13
2023-02-24T21:56:56.835Z,100310.25
2023-02-24T22:02:00.881Z,100322.44
2023-02-24T22:07:04.883Z,100314.13
2023-02-24T22:12:09.914Z,100312.44
2023-02-24T22:17:14.941Z,100314.22
2023-02-24T22:22:18.815Z,100311.78
2023-02-24T22:27:22.766Z,100296.00
2023-02-24T22:32:26.888Z,100318.81
2023-02-24T22:37:31.082Z,100330.81
2023-02-24T22:42:34.881Z,100309.97
2023-02-24T22:47:39.979Z,100329.63
2023-02-24T22:52:43.846Z,100343.34
2023-02-24T22:57:48.068Z,100346.09
2023-02-24T23:02:51.792Z,100363.19
2023-02-24T23:07:55.812Z,100373.53
2023-02-24T23:12:59.947Z,100364.31
2023-02-24T23:18:03.793Z,100382.25
2023-02-24T23:23:08.780Z,100383.84
2023-02-24T23:28:12.627Z,100392.41
2023-02-24T23:33:16.563Z,100390.75
2023-02-24T23:38:20.715Z,100392.44
2023-02-24T23:43:24.516Z,100390.72
2023-02-24T23:48:28.470Z,100409.94
2023-02-24T23:53:32.472Z,100432.06
2023-02-24T23:58:40.921Z,100420.19
